Flight Track Log - Related Links

Times and Time Zones

All times are in EST time to prevent confusion due to time zone crossing. See the AAL963 flight status page for this flight to view local times or setup timezone preferences in your user account.

Time Position Orientation Groundspeed Altitude Reporting Facility
EST Latitude Longitude Course Direction KTS MPH feet Rate Location/Type
Tue 09:49:42 PM 32.8833 -97.0500 159° South 183 211 1,300  Level Dallas / Fort Worth TRACON
Tue 09:49:59 PM 32.8652 -97.0511 181° South 186 214 1,900 1,574 Climbing FlightAware ADS-B
Tue 09:50:43 PM 32.8250 -97.0524 181° South 233 268 2,900 2,204 Climbing FlightAware ADS-B
Tue 09:50:48 PM 32.8167 -97.0500 180° South 240 276 3,700 2,780 Climbing Dallas / Fort Worth TRACON
Tue 09:51:24 PM 32.7782 -97.0533 181° South 258 297 4,800 1,895 Climbing FlightAware ADS-B
Tue 09:51:45 PM 32.7687 -97.0535 181° South 273 314 5,500 2,488 Climbing FlightAware ADS-B
Tue 09:52:05 PM 32.7266 -97.0546 181° South 282 325 6,500 2,632 Climbing FlightAware ADS-B
Tue 09:52:42 PM 32.6761 -97.0464 172° South 302 348 8,000 2,267 Climbing FlightAware ADS-B
Tue 09:52:50 PM 32.6746 -97.0458 161° South 302 348 8,200 2,262 Climbing FlightAware ADS-B
Tue 09:55:00 PM 32.4156 -96.8791 159° South  Level FlightAware Approximate
Tue 09:56:46 PM 32.2804 -96.8161 180° South 451 519 17,200  Level FlightAware ADS-B
Tue 09:57:16 PM 32.2145 -96.7885 160° South 454 522 18,500 2,262 Climbing FlightAware ADS-B
Tue 09:57:47 PM 32.1524 -96.7649 162° South 466 536 19,500 2,100 Climbing FlightAware ADS-B
Tue 09:58:16 PM 32.0900 -96.7413 162° South 472 543 20,600 2,100 Climbing FlightAware ADS-B
Tue 09:58:47 PM 32.0311 -96.7190 162° South 477 549 21,600 2,066 Climbing FlightAware ADS-B
Tue 09:59:17 PM 31.9652 -96.6941 162° South 484 557 22,700 2,118 Climbing FlightAware ADS-B
Tue 09:59:21 PM 31.9573 -96.6910 162° South 485 558 22,800 2,069 Climbing FlightAware ADS-B
Tue 09:59:46 PM 31.9035 -96.6707 162° South 490 564 23,700 2,000 Climbing FlightAware ADS-B
Tue 10:00:03 PM 31.8646 -96.6558 162° South 492 566 24,200 1,800 Climbing FlightAware ADS-B
Tue 10:00:16 PM 31.8368 -96.6446 161° South 496 571 24,600 1,800 Climbing FlightAware ADS-B
Tue 10:00:43 PM 31.7756 -96.6193 161° South 502 578 25,400 1,600 Climbing FlightAware ADS-B
Tue 10:00:46 PM 31.7737 -96.6184 160° South 503 579 25,400 1,800 Level FlightAware ADS-B
Tue 10:01:13 PM 31.7097 -96.5919 161° South 503 579 26,300 1,784 Climbing FlightAware ADS-B
Tue 10:01:23 PM 31.6896 -96.5836 161° South 503 579 26,500 1,500 Climbing FlightAware ADS-B
Tue 10:01:53 PM 31.6208 -96.5554 161° South 514 592 27,300 1,600 Climbing FlightAware ADS-B
Tue 10:02:23 PM 31.5530 -96.5276 161° South 518 596 28,100 1,500 Climbing FlightAware ADS-B
Tue 10:02:33 PM 31.5300 -96.5183 161° South 522 601 28,300 1,400 Climbing FlightAware ADS-B
Tue 10:02:53 PM 31.4883 -96.5016 161° South 525 604 28,800 1,350 Climbing FlightAware ADS-B
Tue 10:03:13 PM 31.4386 -96.4831 162° South 530 610 29,200 1,200 Climbing FlightAware ADS-B
Tue 10:03:23 PM 31.4149 -96.4744 163° South 532 612 29,400 1,000 Climbing FlightAware ADS-B
Tue 10:03:43 PM 31.3679 -96.4544 160° South 539 620 29,700 1,000 Climbing FlightAware ADS-B
Tue 10:03:53 PM 31.3474 -96.4395 148° Southeast 544 626 29,900 1,429 Climbing FlightAware ADS-B
Tue 10:04:04 PM 31.3274 -96.4216 143° Southeast 546 628 30,200 1,650 Climbing FlightAware ADS-B
Tue 10:04:33 PM 31.2690 -96.3659 141° Southeast 546 628 31,000 1,424 Climbing FlightAware ADS-B
Tue 10:05:03 PM 31.2117 -96.3073 139° Southeast 549 632 31,600 1,200 Climbing FlightAware ADS-B
Tue 10:05:13 PM 31.1932 -96.2868 137° Southeast 552 635 31,800 1,200 Climbing FlightAware ADS-B
Tue 10:05:33 PM 31.1576 -96.2455 135° Southeast 552 635 32,200 1,400 Climbing FlightAware ADS-B
Tue 10:05:43 PM 31.1389 -96.2235 135° Southeast 553 636 32,500 1,200 Climbing FlightAware ADS-B
Tue 10:06:03 PM 31.1026 -96.1811 135° Southeast 555 639 32,800 500 Climbing FlightAware ADS-B
Tue 10:06:43 PM 31.0306 -96.0980 135° Southeast 560 644 33,000 171 Climbing FlightAware ADS-B
Tue 10:07:13 PM 30.9744 -96.0335 135° Southeast 561 646 33,000  Level FlightAware ADS-B
Tue 10:07:43 PM 30.9189 -95.9703 136° Southeast 561 646 33,000  Level FlightAware ADS-B
Tue 10:08:13 PM 30.8625 -95.9063 136° Southeast 559 643 33,000  Level FlightAware ADS-B
Tue 10:08:43 PM 30.8080 -95.8447 136° Southeast 560 644 33,000  Level FlightAware ADS-B
Tue 10:09:13 PM 30.7519 -95.7814 136° Southeast 561 646 33,000  Level FlightAware ADS-B
Tue 10:09:44 PM 30.6954 -95.7178 136° Southeast 561 646 33,000  Level FlightAware ADS-B
Tue 10:10:13 PM 30.6409 -95.6566 136° Southeast 561 646 33,000  Level FlightAware ADS-B
Tue 10:10:43 PM 30.5851 -95.5940 136° Southeast 561 646 33,000  Level FlightAware ADS-B
Tue 10:11:13 PM 30.5283 -95.5303 136° Southeast 564 649 33,000  Level FlightAware ADS-B
Tue 10:11:44 PM 30.4715 -95.4668 136° Southeast 565 650 33,000  Level FlightAware ADS-B
Tue 10:12:13 PM 30.4188 -95.4080 136° Southeast 565 650 33,000  Level FlightAware ADS-B
Tue 10:12:15 PM 30.4024 -95.3897 136° Southeast 564 649 33,000  Level FlightAware ADS-B (EGLF / FAB)
Tue 10:12:44 PM 30.3596 -95.3419 136° Southeast 565 650 33,000  Level FlightAware ADS-B
Tue 10:13:14 PM 30.3028 -95.2787 136° Southeast 565 650 33,000  Level FlightAware ADS-B
Tue 10:13:20 PM 30.2807 -95.2542 136° Southeast 565 650 33,000  Level FlightAware ADS-B (EGLF / FAB)
Tue 10:13:43 PM 30.2465 -95.2162 136° Southeast 566 651 33,000  Level FlightAware ADS-B
Tue 10:14:01 PM 30.2035 -95.1685 136° Southeast 567 652 33,000  Level FlightAware ADS-B (EGLF / FAB)
Tue 10:14:13 PM 30.1928 -95.1565 136° Southeast 567 652 33,000  Level FlightAware ADS-B
Tue 10:14:43 PM 30.1381 -95.0959 136° Southeast 567 652 33,000  Level FlightAware ADS-B
Tue 10:15:13 PM 30.0774 -95.0287 136° Southeast 568 654 33,000  Level FlightAware ADS-B
Tue 10:15:21 PM 30.0563 -95.0055 136° Southeast 568 654 33,000  Level FlightAware ADS-B (EGLF / FAB)
Tue 10:15:43 PM 30.0193 -94.9646 136° Southeast 570 656 33,000  Level FlightAware ADS-B
Tue 10:16:02 PM 29.9739 -94.9146 136° Southeast 568 654 33,000  Level FlightAware ADS-B (EGLF / FAB)
Tue 10:16:13 PM 29.9623 -94.9018 136° Southeast 569 655 33,000  Level FlightAware ADS-B
Tue 10:16:43 PM 29.9056 -94.8394 136° Southeast 570 656 33,000  Level FlightAware ADS-B
Tue 10:17:13 PM 29.8488 -94.7769 136° Southeast 571 657 33,000  Level FlightAware ADS-B
Tue 10:17:22 PM 29.8213 -94.7468 136° Southeast 570 656 33,000  Level FlightAware ADS-B (EGLF / FAB)
Tue 10:17:43 PM 29.7920 -94.7148 136° Southeast 572 658 33,000  Level FlightAware ADS-B
Tue 10:18:02 PM 29.7464 -94.6647 136° Southeast 571 657 33,000  Level FlightAware ADS-B (EGLF / FAB)
Tue 10:18:14 PM 29.7349 -94.6521 136° Southeast 572 658 33,000  Level FlightAware ADS-B
Tue 10:18:43 PM 29.6785 -94.5905 136° Southeast 572 658 33,000  Level FlightAware ADS-B
Tue 10:19:14 PM 29.6190 -94.5256 136° Southeast 570 656 33,000  Level FlightAware ADS-B
Tue 10:19:22 PM 29.5927 -94.4968 137° Southeast 569 655 33,000  Level FlightAware ADS-B (EGLF / FAB)
Tue 10:19:43 PM 29.5609 -94.4623 137° Southeast 570 656 33,000  Level FlightAware ADS-B
Tue 10:20:01 PM 29.5340 -94.4330 137° Southeast 569 655 33,000  Level FlightAware ADS-B (EGLF / FAB)
Tue 10:20:14 PM 29.5049 -94.4014 137° Southeast 570 656 33,000  Level FlightAware ADS-B
Tue 10:20:43 PM 29.4478 -94.3394 137° Southeast 570 656 33,000  Level FlightAware ADS-B
Tue 10:21:13 PM 29.3911 -94.2779 137° Southeast 570 656 33,000  Level FlightAware ADS-B
Tue 10:21:43 PM 29.3324 -94.2143 137° Southeast 570 656 33,000  Level FlightAware ADS-B
Tue 10:22:13 PM 29.2781 -94.1556 137° Southeast 570 656 33,000  Level FlightAware ADS-B
Tue 10:22:43 PM 29.2186 -94.0914 137° Southeast 569 655 33,000  Level FlightAware ADS-B
Tue 10:23:13 PM 29.1602 -94.0285 137° Southeast 569 655 33,000  Level FlightAware ADS-B
Tue 10:23:43 PM 29.1338 -94.0001 137° Southeast 570 656 33,000  Level FlightAware ADS-B
Tue 10:24:26 PM 29.0317 -93.8889 137° Southeast 565 650 33,000  Level Houston Center
Tue 10:25:27 PM 28.9261 -93.7778 137° Southeast 573 659 33,000  Level Houston Center
Tue 10:26:28 PM 28.7978 -93.6403 137° Southeast 575 662 33,000  Level Houston Center
Tue 10:27:29 PM 28.6694 -93.5039 137° Southeast 578 665 33,000  Level Houston Center
Tue 10:28:30 PM 28.5628 -93.3897 137° Southeast 578 665 33,000  Level Houston Center
Tue 10:29:31 PM 28.4447 -93.2644 137° Southeast 580 667 33,000  Level Houston Center
Tue 10:30:32 PM 28.3156 -93.1300 137° Southeast 582 670 33,000 -49 Level Houston Center
Tue 10:31:33 PM 28.1964 -93.0058 137° Southeast 582 670 32,900  Descending Houston Center
Tue 10:32:34 PM 28.0786 -92.8811 137° Southeast 581 669 33,000 49 Climbing Houston Center
Tue 10:33:36 PM 27.9589 -92.7561 137° Southeast 584 672 33,000 -49 Level Houston Center
Tue 10:34:37 PM 27.8408 -92.6308 137° Southeast 583 671 32,900 -49 Descending Houston Center
Tue 10:35:38 PM 27.7197 -92.5089 138° Southeast 584 672 32,900 49 Level Houston Center
Tue 10:36:39 PM 27.6006 -92.3853 137° Southeast 584 672 33,000  Climbing Houston Center
Tue 10:37:40 PM 27.4806 -92.2622 138° Southeast 586 674 32,900  Descending Houston Center
Tue 10:38:41 PM 27.3367 -92.1156 138° Southeast 583 671 33,000  Climbing Houston Center
Tue 10:39:42 PM 27.2167 -91.9922 138° Southeast 584 672 32,900 10 Descending Houston Center
Tue 10:41:00 PM 27.0831 -91.8653 144° Southeast  Level FlightAware Approximate
Tue 10:48:00 PM 26.3128 -91.2540 145° Southeast  Level FlightAware Approximate
Tue 10:49:00 PM 26.2026 -91.1671 145° Southeast  Level FlightAware Approximate
Tue 10:50:00 PM 26.0923 -91.0803 145° Southeast  Level FlightAware Approximate
Tue 10:51:00 PM 25.9819 -90.9938 145° Southeast  Level FlightAware Approximate
Tue 10:52:00 PM 25.8715 -90.9073 145° Southeast  Level FlightAware Approximate
Tue 10:53:00 PM 25.7611 -90.8211 145° Southeast  Level FlightAware Approximate
Tue 10:54:00 PM 25.6506 -90.7350 145° Southeast  Level FlightAware Approximate
Tue 10:55:00 PM 25.5401 -90.6491 145° Southeast  Level FlightAware Approximate
Tue 10:56:00 PM 25.4295 -90.5633 145° Southeast  Level FlightAware Approximate
Tue 10:57:00 PM 25.3188 -90.4777 145° Southeast  Level FlightAware Approximate
Tue 10:58:00 PM 25.2082 -90.3922 145° Southeast  Level FlightAware Approximate
Tue 10:59:00 PM 25.0974 -90.3069 145° Southeast  Level FlightAware Approximate
Tue 11:00:00 PM 24.9866 -90.2218 145° Southeast  Level FlightAware Approximate
Tue 11:01:00 PM 24.8758 -90.1368 145° Southeast  Level FlightAware Approximate
Tue 11:02:00 PM 24.7649 -90.0519 145° Southeast  Level FlightAware Approximate
Tue 11:03:00 PM 24.6564 -89.9691 145° Southeast  Level FlightAware Approximate
Tue 11:04:00 PM 24.5479 -89.8864 145° Southeast  Level FlightAware Approximate
Tue 11:05:00 PM 24.4407 -89.8021 146° Southeast  Level FlightAware Approximate
Tue 11:06:00 PM 24.3309 -89.7216 146° Southeast  Level FlightAware Approximate
Tue 11:07:00 PM 24.2210 -89.6413 146° Southeast  Level FlightAware Approximate
Tue 11:08:00 PM 24.1111 -89.5612 146° Southeast  Level FlightAware Approximate
Tue 11:09:00 PM 24.0019 -89.4801 145° Southeast  Level FlightAware Approximate
Tue 11:10:00 PM 23.8934 -89.3977 145° Southeast  Level FlightAware Approximate
Tue 11:11:00 PM 23.7849 -89.3155 145° Southeast  Level FlightAware Approximate
Tue 11:12:00 PM 23.6764 -89.2334 145° Southeast  Level FlightAware Approximate
Tue 11:13:00 PM 23.5678 -89.1514 145° Southeast  Level FlightAware Approximate
Tue 11:14:00 PM 23.4592 -89.0696 145° Southeast  Level FlightAware Approximate
Tue 11:15:00 PM 23.3506 -88.9879 145° Southeast  Level FlightAware Approximate
Tue 11:16:00 PM 23.2419 -88.9063 145° Southeast  Level FlightAware Approximate
Tue 11:17:00 PM 23.1333 -88.8246 145° Southeast  Level FlightAware Approximate
Tue 11:18:00 PM 23.0252 -88.7423 145° Southeast  Level FlightAware Approximate
Tue 11:19:00 PM 22.9170 -88.6602 145° Southeast  Level FlightAware Approximate
Tue 11:20:00 PM 22.8087 -88.5781 145° Southeast  Level FlightAware Approximate
Tue 11:21:00 PM 22.7004 -88.4962 145° Southeast  Level FlightAware Approximate
Tue 11:22:00 PM 22.6015 -88.4018 137° Southeast  Level FlightAware Approximate
Tue 11:23:00 PM 22.5043 -88.3051 137° Southeast  Level FlightAware Approximate
Tue 11:24:00 PM 22.4070 -88.2085 137° Southeast  Level FlightAware Approximate
Tue 11:25:00 PM 22.3097 -88.1121 137° Southeast  Level FlightAware Approximate
Tue 11:26:00 PM 22.2123 -88.0158 138° Southeast  Level FlightAware Approximate
Tue 11:27:00 PM 22.1149 -87.9196 138° Southeast  Level FlightAware Approximate
Tue 11:28:00 PM 22.0174 -87.8236 138° Southeast  Level FlightAware Approximate
Tue 11:29:00 PM 21.9198 -87.7277 138° Southeast  Level FlightAware Approximate
Tue 11:30:00 PM 21.8222 -87.6319 138° Southeast  Level FlightAware Approximate
Tue 11:31:00 PM 21.7245 -87.5363 138° Southeast  Level FlightAware Approximate
Tue 11:32:00 PM 21.6268 -87.4408 138° Southeast  Level FlightAware Approximate
Tue 11:33:00 PM 21.5290 -87.3454 138° Southeast  Level FlightAware Approximate
Tue 11:34:00 PM 21.4311 -87.2503 138° Southeast  Level FlightAware Approximate
Tue 11:35:00 PM 21.3330 -87.1553 138° Southeast  Level FlightAware Approximate
Tue 11:36:00 PM 21.2350 -87.0605 138° Southeast  Level FlightAware Approximate
Tue 11:37:00 PM 21.1369 -86.9658 138° Southeast  Level FlightAware Approximate
Tue 11:38:00 PM 21.0387 -86.8712 138° Southeast  Level FlightAware Approximate
Tue 11:39:00 PM 20.9409 -86.7761 138° Southeast  Level FlightAware Approximate
Tue 11:40:00 PM 20.8433 -86.6811 138° Southeast  Level FlightAware Approximate
Tue 11:41:00 PM 20.7455 -86.5861 138° Southeast  Level FlightAware Approximate
Tue 11:42:00 PM 20.6478 -86.4913 138° Southeast  Level FlightAware Approximate
Tue 11:43:00 PM 20.5499 -86.3966 138° Southeast  Level FlightAware Approximate
Tue 11:44:00 PM 20.4521 -86.3020 138° Southeast  Level FlightAware Approximate
Tue 11:45:00 PM 20.3541 -86.2076 138° Southeast  Level FlightAware Approximate
Tue 11:46:00 PM 20.2562 -86.1132 138° Southeast  Level FlightAware Approximate
Tue 11:47:00 PM 20.1581 -86.0190 138° Southeast  Level FlightAware Approximate
Tue 11:48:00 PM 20.0600 -85.9249 138° Southeast  Level FlightAware Approximate
Tue 11:49:00 PM 19.9616 -85.8313 138° Southeast  Level FlightAware Approximate
Tue 11:50:00 PM 19.8629 -85.7381 138° Southeast  Level FlightAware Approximate
Tue 11:51:00 PM 19.7641 -85.6451 138° Southeast  Level FlightAware Approximate
Tue 11:52:00 PM 19.6652 -85.5521 138° Southeast  Level FlightAware Approximate
Tue 11:53:00 PM 19.5663 -85.4593 138° Southeast  Level FlightAware Approximate
Tue 11:54:00 PM 19.4674 -85.3665 139° Southeast  Level FlightAware Approximate
Tue 11:55:00 PM 19.3684 -85.2739 139° Southeast  Level FlightAware Approximate
Tue 11:56:00 PM 19.2694 -85.1814 139° Southeast  Level FlightAware Approximate
Tue 11:57:00 PM 19.1703 -85.0890 139° Southeast  Level FlightAware Approximate
Tue 11:58:00 PM 19.0712 -84.9967 139° Southeast  Level FlightAware Approximate
Tue 11:59:00 PM 18.9720 -84.9046 139° Southeast  Level FlightAware Approximate
Wed 12:00:00 AM 18.8728 -84.8125 139° Southeast  Level FlightAware Approximate
Wed 12:01:00 AM 18.7735 -84.7206 139° Southeast  Level FlightAware Approximate
Wed 12:02:00 AM 18.6742 -84.6287 139° Southeast  Level FlightAware Approximate
Wed 12:03:00 AM 18.5749 -84.5370 139° Southeast  Level FlightAware Approximate
Wed 12:04:00 AM 18.4866 -84.4352 123° Southeast  Level FlightAware Approximate
Wed 12:05:00 AM 18.4133 -84.3194 125° Southeast  Level FlightAware Approximate
Wed 12:06:00 AM 18.3382 -84.2050 125° Southeast  Level FlightAware Approximate
Wed 12:07:00 AM 18.2631 -84.0907 125° Southeast  Level FlightAware Approximate
Wed 12:08:00 AM 18.1878 -83.9765 125° Southeast  Level FlightAware Approximate
Wed 12:09:00 AM 18.1126 -83.8624 125° Southeast  Level FlightAware Approximate
Wed 12:10:00 AM 18.0372 -83.7483 125° Southeast  Level FlightAware Approximate
Wed 12:11:00 AM 17.9618 -83.6344 125° Southeast  Level FlightAware Approximate
Wed 12:12:00 AM 17.8705 -83.5346 135° Southeast  Level FlightAware Approximate
Wed 12:13:00 AM 17.7763 -83.4374 136° Southeast  Level FlightAware Approximate
Wed 12:14:00 AM 17.6821 -83.3404 136° Southeast  Level FlightAware Approximate
Wed 12:15:00 AM 17.5878 -83.2434 136° Southeast  Level FlightAware Approximate
Wed 12:16:00 AM 17.4935 -83.1466 136° Southeast  Level FlightAware Approximate
Wed 12:17:00 AM 17.3991 -83.0498 136° Southeast  Level FlightAware Approximate
Wed 12:18:00 AM 17.3013 -82.9569 139° Southeast  Level FlightAware Approximate
Wed 12:19:00 AM 17.2019 -82.8660 139° Southeast  Level FlightAware Approximate
Wed 12:20:00 AM 17.1024 -82.7752 139° Southeast  Level FlightAware Approximate
Wed 12:21:00 AM 17.0028 -82.6845 139° Southeast  Level FlightAware Approximate
Wed 12:22:00 AM 16.9032 -82.5940 139° Southeast  Level FlightAware Approximate
Wed 12:23:00 AM 16.8036 -82.5035 139° Southeast  Level FlightAware Approximate
Wed 12:24:00 AM 16.7039 -82.4131 139° Southeast  Level FlightAware Approximate
Wed 12:25:00 AM 16.6042 -82.3227 139° Southeast  Level FlightAware Approximate
Wed 12:26:00 AM 16.5045 -82.2325 139° Southeast  Level FlightAware Approximate
Wed 12:27:00 AM 16.4086 -82.1381 134° Southeast  Level FlightAware Approximate
Wed 12:28:00 AM 16.3174 -82.0386 134° Southeast  Level FlightAware Approximate
Wed 12:29:00 AM 16.2262 -81.9392 134° Southeast  Level FlightAware Approximate
Wed 12:30:00 AM 16.1349 -81.8399 134° Southeast  Level FlightAware Approximate
Wed 12:31:00 AM 16.0436 -81.7407 134° Southeast  Level FlightAware Approximate
Wed 12:32:00 AM 15.9522 -81.6416 134° Southeast  Level FlightAware Approximate
Wed 12:33:00 AM 15.8611 -81.5429 134° Southeast  Level FlightAware Approximate
Wed 12:34:00 AM 15.7700 -81.4443 134° Southeast  Level FlightAware Approximate
Wed 12:35:00 AM 15.6788 -81.3458 134° Southeast  Level FlightAware Approximate
Wed 12:36:00 AM 15.5876 -81.2474 134° Southeast  Level FlightAware Approximate
Wed 12:37:00 AM 15.4963 -81.1491 134° Southeast  Level FlightAware Approximate
Wed 12:38:00 AM 15.4050 -81.0508 134° Southeast  Level FlightAware Approximate
Wed 12:39:00 AM 15.3137 -80.9527 134° Southeast  Level FlightAware Approximate
Wed 12:40:00 AM 15.2223 -80.8546 134° Southeast  Level FlightAware Approximate
Wed 12:41:00 AM 15.1308 -80.7566 134° Southeast  Level FlightAware Approximate
Wed 12:42:00 AM 15.0393 -80.6587 134° Southeast  Level FlightAware Approximate
Wed 12:43:00 AM 14.9408 -80.5690 142° Southeast  Level FlightAware Approximate
Wed 12:44:00 AM 14.8369 -80.4854 142° Southeast  Level FlightAware Approximate
Wed 12:45:00 AM 14.7331 -80.4020 142° Southeast  Level FlightAware Approximate
Wed 12:46:00 AM 14.6292 -80.3186 142° Southeast  Level FlightAware Approximate
Wed 12:47:00 AM 14.5252 -80.2353 142° Southeast  Level FlightAware Approximate
Wed 12:48:00 AM 14.4212 -80.1520 142° Southeast  Level FlightAware Approximate
Wed 12:49:00 AM 14.3172 -80.0689 142° Southeast  Level FlightAware Approximate
Wed 12:50:00 AM 14.2132 -79.9858 142° Southeast  Level FlightAware Approximate
Wed 12:51:00 AM 14.1091 -79.9028 142° Southeast  Level FlightAware Approximate
Wed 12:52:00 AM 14.0051 -79.8199 142° Southeast  Level FlightAware Approximate
Wed 12:53:00 AM 13.9009 -79.7371 142° Southeast  Level FlightAware Approximate
Wed 12:54:00 AM 13.7968 -79.6542 142° Southeast  Level FlightAware Approximate
Wed 12:55:00 AM 13.6928 -79.5713 142° Southeast  Level FlightAware Approximate
Wed 12:56:00 AM 13.5888 -79.4885 142° Southeast  Level FlightAware Approximate
Wed 12:57:00 AM 13.4847 -79.4057 142° Southeast  Level FlightAware Approximate
Wed 12:58:00 AM 13.3806 -79.3230 142° Southeast  Level FlightAware Approximate
Wed 12:59:00 AM 13.2765 -79.2404 142° Southeast  Level FlightAware Approximate
Wed 01:00:00 AM 13.1724 -79.1579 142° Southeast  Level FlightAware Approximate
Wed 01:01:00 AM 13.0682 -79.0754 142° Southeast  Level FlightAware Approximate
Wed 01:02:00 AM 12.9640 -78.9930 142° Southeast  Level FlightAware Approximate
Wed 01:03:00 AM 12.8598 -78.9106 142° Southeast  Level FlightAware Approximate
Wed 01:04:00 AM 12.7555 -78.8283 142° Southeast  Level FlightAware Approximate
Wed 01:05:00 AM 12.6512 -78.7461 142° Southeast  Level FlightAware Approximate
Wed 01:06:00 AM 12.5469 -78.6640 142° Southeast  Level FlightAware Approximate
Wed 01:07:00 AM 12.4426 -78.5819 142° Southeast  Level FlightAware Approximate
Wed 01:08:00 AM 12.3383 -78.4999 142° Southeast  Level FlightAware Approximate
Wed 01:09:00 AM 12.2339 -78.4180 143° Southeast  Level FlightAware Approximate
Wed 01:10:00 AM 12.1295 -78.3361 143° Southeast  Level FlightAware Approximate
Wed 01:11:00 AM 12.0251 -78.2543 143° Southeast  Level FlightAware Approximate
Wed 01:12:00 AM 11.9206 -78.1725 143° Southeast  Level FlightAware Approximate
Wed 01:13:00 AM 11.8161 -78.0909 143° Southeast  Level FlightAware Approximate
Wed 01:14:00 AM 11.7116 -78.0092 143° Southeast  Level FlightAware Approximate
Wed 01:15:00 AM 11.6071 -77.9277 143° Southeast  Level FlightAware Approximate
Wed 01:16:00 AM 11.5026 -77.8462 143° Southeast  Level FlightAware Approximate
Wed 01:17:00 AM 11.3980 -77.7647 143° Southeast  Level FlightAware Approximate
Wed 01:18:00 AM 11.2934 -77.6833 143° Southeast  Level FlightAware Approximate
Wed 01:19:00 AM 11.1888 -77.6020 143° Southeast  Level FlightAware Approximate
Wed 01:20:00 AM 11.0842 -77.5208 143° Southeast  Level FlightAware Approximate
Wed 01:21:00 AM 10.9795 -77.4396 143° Southeast  Level FlightAware Approximate
Wed 01:22:00 AM 10.8808 -77.3512 137° Southeast  Level FlightAware Approximate
Wed 01:23:00 AM 10.7843 -77.2602 137° Southeast  Level FlightAware Approximate
Wed 01:24:00 AM 10.6879 -77.1692 137° Southeast  Level FlightAware Approximate
Wed 01:25:00 AM 10.5914 -77.0782 137° Southeast  Level FlightAware Approximate
Wed 01:26:00 AM 10.4948 -76.9873 137° Southeast  Level FlightAware Approximate
Wed 01:27:00 AM 10.3983 -76.8964 137° Southeast  Level FlightAware Approximate
Wed 01:28:00 AM 10.3017 -76.8056 137° Southeast  Level FlightAware Approximate
Wed 01:29:00 AM 10.2051 -76.7149 137° Southeast  Level FlightAware Approximate
Wed 01:30:00 AM 10.1085 -76.6242 137° Southeast  Level FlightAware Approximate
Wed 01:31:00 AM 10.0118 -76.5336 137° Southeast  Level FlightAware Approximate
Wed 01:32:00 AM 9.9151 -76.4430 137° Southeast  Level FlightAware Approximate
Wed 01:33:00 AM 9.8184 -76.3525 137° Southeast  Level FlightAware Approximate
Wed 01:34:00 AM 9.7217 -76.2620 137° Southeast  Level FlightAware Approximate
Wed 01:35:00 AM 9.6250 -76.1716 137° Southeast  Level FlightAware Approximate
Wed 01:36:00 AM 9.5282 -76.0813 137° Southeast  Level FlightAware Approximate
Wed 01:37:00 AM 9.4314 -75.9910 137° Southeast  Level FlightAware Approximate
Wed 01:38:00 AM 9.3346 -75.9007 137° Southeast  Level FlightAware Approximate
Wed 01:39:00 AM 9.2377 -75.8105 137° Southeast  Level FlightAware Approximate
Wed 01:40:00 AM 9.1409 -75.7203 137° Southeast  Level FlightAware Approximate
Wed 01:41:00 AM 9.0440 -75.6302 137° Southeast  Level FlightAware Approximate
Wed 01:42:00 AM 8.9471 -75.5401 137° Southeast  Level FlightAware Approximate
Wed 01:43:00 AM 8.8501 -75.4501 137° Southeast  Level FlightAware Approximate
Wed 01:44:00 AM 8.7515 -75.3620 139° Southeast  Level FlightAware Approximate
Wed 01:45:00 AM 8.6529 -75.2739 139° Southeast  Level FlightAware Approximate
Wed 01:46:00 AM 8.5543 -75.1859 139° Southeast  Level FlightAware Approximate
Wed 01:47:00 AM 8.4556 -75.0979 139° Southeast  Level FlightAware Approximate
Wed 01:48:00 AM 8.3569 -75.0100 139° Southeast  Level FlightAware Approximate
Wed 01:49:00 AM 8.2582 -74.9221 139° Southeast  Level FlightAware Approximate
Wed 01:50:00 AM 8.1595 -74.8342 139° Southeast  Level FlightAware Approximate
Wed 01:51:00 AM 8.0608 -74.7464 139° Southeast  Level FlightAware Approximate
Wed 01:52:00 AM 7.9620 -74.6587 139° Southeast  Level FlightAware Approximate
Wed 01:53:00 AM 7.8633 -74.5710 139° Southeast  Level FlightAware Approximate
Wed 01:54:00 AM 7.7647 -74.4830 138° Southeast  Level FlightAware Approximate
Wed 01:55:00 AM 7.6673 -74.3938 138° Southeast  Level FlightAware Approximate
Wed 01:56:00 AM 7.5698 -74.3047 138° Southeast  Level FlightAware Approximate
Wed 01:57:00 AM 7.4723 -74.2156 138° Southeast  Level FlightAware Approximate
Wed 01:58:00 AM 7.3748 -74.1266 138° Southeast  Level FlightAware Approximate
Wed 01:59:00 AM 7.2773 -74.0376 138° Southeast  Level FlightAware Approximate
Wed 02:00:00 AM 7.1797 -73.9486 138° Southeast  Level FlightAware Approximate
Wed 02:01:00 AM 7.0822 -73.8597 138° Southeast  Level FlightAware Approximate
Wed 02:02:00 AM 6.9786 -73.7793 152° Southeast  Level FlightAware Approximate
Wed 02:03:00 AM 6.8629 -73.7163 152° Southeast  Level FlightAware Approximate
Wed 02:04:00 AM 6.7471 -73.6534 152° Southeast  Level FlightAware Approximate
Wed 02:05:00 AM 6.6314 -73.5904 152° Southeast  Level FlightAware Approximate
Wed 02:06:00 AM 6.5156 -73.5275 152° Southeast  Level FlightAware Approximate
Wed 02:07:00 AM 6.3999 -73.4647 152° Southeast  Level FlightAware Approximate
Wed 02:08:00 AM 6.2841 -73.4018 152° Southeast  Level FlightAware Approximate
Wed 02:09:00 AM 6.1683 -73.3391 152° Southeast  Level FlightAware Approximate
Wed 02:10:00 AM 6.0525 -73.2763 152° Southeast  Level FlightAware Approximate
Wed 02:11:00 AM 5.9366 -73.2136 152° Southeast  Level FlightAware Approximate
Wed 02:12:00 AM 5.8208 -73.1509 152° Southeast  Level FlightAware Approximate
Wed 02:13:00 AM 5.7050 -73.0883 152° Southeast  Level FlightAware Approximate
Wed 02:14:00 AM 5.5891 -73.0257 152° Southeast  Level FlightAware Approximate
Wed 02:15:00 AM 5.4733 -72.9631 152° Southeast  Level FlightAware Approximate
Wed 02:16:00 AM 5.3574 -72.9005 152° Southeast  Level FlightAware Approximate
Wed 02:17:00 AM 5.2415 -72.8379 152° Southeast  Level FlightAware Approximate
Wed 02:18:00 AM 5.1261 -72.7756 152° Southeast  Level FlightAware Approximate
Wed 02:19:00 AM 5.0106 -72.7133 152° Southeast  Level FlightAware Approximate
Wed 02:20:00 AM 4.8951 -72.6510 152° Southeast  Level FlightAware Approximate
Wed 02:21:00 AM 4.7796 -72.5888 152° Southeast  Level FlightAware Approximate
Wed 02:22:00 AM 4.6642 -72.5266 152° Southeast  Level FlightAware Approximate
Wed 02:23:00 AM 4.5487 -72.4644 152° Southeast  Level FlightAware Approximate
Wed 02:24:00 AM 4.4332 -72.4022 152° Southeast  Level FlightAware Approximate
Wed 02:25:00 AM 4.3177 -72.3400 152° Southeast  Level FlightAware Approximate
Wed 02:26:00 AM 4.2021 -72.2779 152° Southeast  Level FlightAware Approximate
Wed 02:27:00 AM 4.0866 -72.2158 152° Southeast  Level FlightAware Approximate
Wed 02:28:00 AM 3.9711 -72.1536 152° Southeast  Level FlightAware Approximate
Wed 02:29:00 AM 3.8612 -72.0824 145° Southeast  Level FlightAware Approximate
Wed 02:30:00 AM 3.7540 -72.0068 145° Southeast  Level FlightAware Approximate
Wed 02:31:00 AM 3.6468 -71.9312 145° Southeast  Level FlightAware Approximate
Wed 02:32:00 AM 3.5396 -71.8556 145° Southeast  Level FlightAware Approximate
Wed 02:33:00 AM 3.4324 -71.7800 145° Southeast  Level FlightAware Approximate
Wed 02:34:00 AM 3.3252 -71.7045 145° Southeast  Level FlightAware Approximate
Wed 02:35:00 AM 3.2180 -71.6289 145° Southeast  Level FlightAware Approximate
Wed 02:36:00 AM 3.1108 -71.5534 145° Southeast  Level FlightAware Approximate
Wed 02:37:00 AM 3.0036 -71.4779 145° Southeast  Level FlightAware Approximate
Wed 02:38:00 AM 2.8963 -71.4024 145° Southeast  Level FlightAware Approximate
Wed 02:39:00 AM 2.7891 -71.3269 145° Southeast  Level FlightAware Approximate
Wed 02:40:00 AM 2.6819 -71.2514 145° Southeast  Level FlightAware Approximate
Wed 02:41:00 AM 2.5746 -71.1760 145° Southeast  Level FlightAware Approximate
Wed 02:42:00 AM 2.4674 -71.1005 145° Southeast  Level FlightAware Approximate
Wed 02:43:00 AM 2.3601 -71.0251 145° Southeast  Level FlightAware Approximate
Wed 02:44:00 AM 2.2529 -70.9497 145° Southeast  Level FlightAware Approximate
Wed 02:45:00 AM 2.1456 -70.8743 145° Southeast  Level FlightAware Approximate
Wed 02:46:00 AM 2.0384 -70.7989 145° Southeast  Level FlightAware Approximate
Wed 02:47:00 AM 1.9311 -70.7235 145° Southeast  Level FlightAware Approximate
Wed 02:48:00 AM 1.8238 -70.6481 145° Southeast  Level FlightAware Approximate
Wed 02:49:00 AM 1.7165 -70.5727 145° Southeast  Level FlightAware Approximate
Wed 02:50:00 AM 1.6093 -70.4974 145° Southeast  Level FlightAware Approximate
Wed 02:51:00 AM 1.5020 -70.4220 145° Southeast  Level FlightAware Approximate
Wed 02:52:00 AM 1.3947 -70.3466 145° Southeast  Level FlightAware Approximate
Wed 02:53:00 AM 1.2874 -70.2713 145° Southeast  Level FlightAware Approximate
Wed 02:54:00 AM 1.1848 -70.1901 138° Southeast  Level FlightAware Approximate
Wed 02:55:00 AM 1.0869 -70.1029 138° Southeast  Level FlightAware Approximate
Wed 02:56:00 AM 0.9890 -70.0157 138° Southeast  Level FlightAware Approximate
Wed 02:57:00 AM 0.8911 -69.9285 138° Southeast  Level FlightAware Approximate
Wed 02:58:00 AM 0.7932 -69.8414 138° Southeast  Level FlightAware Approximate
Wed 02:59:00 AM 0.6952 -69.7542 138° Southeast  Level FlightAware Approximate
Wed 03:00:00 AM 0.5973 -69.6670 138° Southeast  Level FlightAware Approximate
Wed 03:01:00 AM 0.4994 -69.5799 138° Southeast  Level FlightAware Approximate
Wed 03:02:00 AM 0.4015 -69.4927 138° Southeast  Level FlightAware Approximate
Wed 03:03:00 AM 0.3036 -69.4056 138° Southeast  Level FlightAware Approximate
Wed 03:04:00 AM 0.2057 -69.3184 138° Southeast  Level FlightAware Approximate
Wed 03:05:00 AM 0.1077 -69.2313 138° Southeast  Level FlightAware Approximate
Wed 03:06:00 AM 0.0098 -69.1441 138° Southeast  Level FlightAware Approximate
Wed 03:07:00 AM -0.0881 -69.0570 138° Southeast  Level FlightAware Approximate
Wed 03:08:00 AM -0.1860 -68.9698 138° Southeast  Level FlightAware Approximate
Wed 03:09:00 AM -0.2839 -68.8827 138° Southeast  Level FlightAware Approximate
Wed 03:10:00 AM -0.3819 -68.7955 138° Southeast  Level FlightAware Approximate
Wed 03:11:00 AM -0.4798 -68.7084 138° Southeast  Level FlightAware Approximate
Wed 03:12:00 AM -0.5777 -68.6212 138° Southeast  Level FlightAware Approximate
Wed 03:13:00 AM -0.6756 -68.5340 138° Southeast  Level FlightAware Approximate
Wed 03:14:00 AM -0.7737 -68.4467 138° Southeast  Level FlightAware Approximate
Wed 03:15:00 AM -0.8717 -68.3594 138° Southeast  Level FlightAware Approximate
Wed 03:16:00 AM -0.9698 -68.2721 138° Southeast  Level FlightAware Approximate
Wed 03:17:00 AM -1.0679 -68.1847 138° Southeast  Level FlightAware Approximate
Wed 03:18:00 AM -1.1660 -68.0974 138° Southeast  Level FlightAware Approximate
Wed 03:19:00 AM -1.2640 -68.0100 138° Southeast  Level FlightAware Approximate
Wed 03:20:00 AM -1.3621 -67.9227 138° Southeast  Level FlightAware Approximate
Wed 03:21:00 AM -1.4602 -67.8353 138° Southeast  Level FlightAware Approximate
Wed 03:22:00 AM -1.5582 -67.7480 138° Southeast  Level FlightAware Approximate
Wed 03:23:00 AM -1.6563 -67.6606 138° Southeast  Level FlightAware Approximate
Wed 03:24:00 AM -1.7544 -67.5732 138° Southeast  Level FlightAware Approximate
Wed 03:25:00 AM -1.8524 -67.4858 138° Southeast  Level FlightAware Approximate
Wed 03:26:00 AM -1.9505 -67.3984 138° Southeast  Level FlightAware Approximate
Wed 03:27:00 AM -2.0485 -67.3110 138° Southeast  Level FlightAware Approximate
Wed 03:28:00 AM -2.1465 -67.2236 138° Southeast  Level FlightAware Approximate
Wed 03:29:00 AM -2.2446 -67.1362 138° Southeast  Level FlightAware Approximate
Wed 03:30:00 AM -2.3426 -67.0487 138° Southeast  Level FlightAware Approximate
Wed 03:31:00 AM -2.4406 -66.9613 138° Southeast  Level FlightAware Approximate
Wed 03:32:00 AM -2.5386 -66.8738 138° Southeast  Level FlightAware Approximate
Wed 03:33:00 AM -2.6367 -66.7863 138° Southeast  Level FlightAware Approximate
Wed 03:34:00 AM -2.7346 -66.6988 138° Southeast  Level FlightAware Approximate
Wed 03:35:00 AM -2.8326 -66.6113 138° Southeast  Level FlightAware Approximate
Wed 03:36:00 AM -2.9306 -66.5238 138° Southeast  Level FlightAware Approximate
Wed 03:37:00 AM -3.0286 -66.4362 138° Southeast  Level FlightAware Approximate
Wed 03:38:00 AM -3.1266 -66.3487 138° Southeast  Level FlightAware Approximate
Wed 03:39:00 AM -3.2246 -66.2611 138° Southeast  Level FlightAware Approximate
Wed 03:40:00 AM -3.3225 -66.1735 138° Southeast  Level FlightAware Approximate
Wed 03:41:00 AM -3.4205 -66.0859 138° Southeast  Level FlightAware Approximate
Wed 03:42:00 AM -3.5184 -65.9983 138° Southeast  Level FlightAware Approximate
Wed 03:43:00 AM -3.6164 -65.9106 138° Southeast  Level FlightAware Approximate
Wed 03:44:00 AM -3.7143 -65.8230 138° Southeast  Level FlightAware Approximate
Wed 03:45:00 AM -3.8122 -65.7353 138° Southeast  Level FlightAware Approximate
Wed 03:46:00 AM -3.9101 -65.6476 138° Southeast  Level FlightAware Approximate
Wed 03:47:00 AM -4.0080 -65.5599 138° Southeast  Level FlightAware Approximate
Wed 03:48:00 AM -4.1059 -65.4721 138° Southeast  Level FlightAware Approximate
Wed 03:49:00 AM -4.2038 -65.3844 138° Southeast  Level FlightAware Approximate
Wed 03:50:00 AM -4.3017 -65.2966 138° Southeast  Level FlightAware Approximate
Wed 03:51:00 AM -4.3995 -65.2088 138° Southeast  Level FlightAware Approximate
Wed 03:52:00 AM -4.4974 -65.1209 138° Southeast  Level FlightAware Approximate
Wed 03:53:00 AM -4.5952 -65.0331 138° Southeast  Level FlightAware Approximate
Wed 03:54:00 AM -4.6930 -64.9452 138° Southeast  Level FlightAware Approximate
Wed 03:55:00 AM -4.7909 -64.8573 138° Southeast  Level FlightAware Approximate
Wed 03:56:00 AM -4.8887 -64.7693 138° Southeast  Level FlightAware Approximate
Wed 03:57:00 AM -4.9865 -64.6814 138° Southeast  Level FlightAware Approximate
Wed 03:58:00 AM -5.0843 -64.5934 138° Southeast  Level FlightAware Approximate
Wed 03:59:00 AM -5.1821 -64.5054 138° Southeast  Level FlightAware Approximate
Wed 04:00:00 AM -5.2798 -64.4174 138° Southeast  Level FlightAware Approximate
Wed 04:01:00 AM -5.3776 -64.3293 138° Southeast  Level FlightAware Approximate
Wed 04:02:00 AM -5.4753 -64.2412 138° Southeast  Level FlightAware Approximate
Wed 04:03:00 AM -5.5730 -64.1531 138° Southeast  Level FlightAware Approximate
Wed 04:04:00 AM -5.6707 -64.0649 138° Southeast  Level FlightAware Approximate
Wed 04:05:00 AM -5.7684 -63.9768 138° Southeast  Level FlightAware Approximate
Wed 04:06:00 AM -5.8661 -63.8885 138° Southeast  Level FlightAware Approximate
Wed 04:07:00 AM -5.9638 -63.8003 138° Southeast  Level FlightAware Approximate
Wed 04:08:00 AM -6.0615 -63.7120 138° Southeast  Level FlightAware Approximate
Wed 04:09:00 AM -6.1591 -63.6237 138° Southeast  Level FlightAware Approximate
Wed 04:10:00 AM -6.2567 -63.5354 138° Southeast  Level FlightAware Approximate
Wed 04:11:00 AM -6.3543 -63.4470 138° Southeast  Level FlightAware Approximate
Wed 04:12:00 AM -6.4519 -63.3586 138° Southeast  Level FlightAware Approximate
Wed 04:13:00 AM -6.5495 -63.2702 138° Southeast  Level FlightAware Approximate
Wed 04:14:00 AM -6.6471 -63.1817 138° Southeast  Level FlightAware Approximate
Wed 04:15:00 AM -6.7446 -63.0932 138° Southeast  Level FlightAware Approximate
Wed 04:16:00 AM -6.8422 -63.0047 138° Southeast  Level FlightAware Approximate
Wed 04:17:00 AM -6.9397 -62.9161 138° Southeast  Level FlightAware Approximate
Wed 04:18:00 AM -7.0372 -62.8275 138° Southeast  Level FlightAware Approximate
Wed 04:19:00 AM -7.1345 -62.7390 138° Southeast  Level FlightAware Approximate
Wed 04:20:00 AM -7.2318 -62.6504 138° Southeast  Level FlightAware Approximate
Wed 04:21:00 AM -7.3291 -62.5619 138° Southeast  Level FlightAware Approximate
Wed 04:22:00 AM -7.4264 -62.4732 138° Southeast  Level FlightAware Approximate
Wed 04:23:00 AM -7.5236 -62.3846 138° Southeast  Level FlightAware Approximate
Wed 04:24:00 AM -7.6208 -62.2959 138° Southeast  Level FlightAware Approximate
Wed 04:25:00 AM -7.7181 -62.2072 138° Southeast  Level FlightAware Approximate
Wed 04:26:00 AM -7.8152 -62.1184 138° Southeast  Level FlightAware Approximate
Wed 04:27:00 AM -7.9124 -62.0296 138° Southeast  Level FlightAware Approximate
Wed 04:28:00 AM -8.0096 -61.9407 138° Southeast  Level FlightAware Approximate
Wed 04:29:00 AM -8.1067 -61.8518 138° Southeast  Level FlightAware Approximate
Wed 04:30:00 AM -8.2038 -61.7629 138° Southeast  Level FlightAware Approximate
Wed 04:31:00 AM -8.3009 -61.6739 138° Southeast  Level FlightAware Approximate
Wed 04:32:00 AM -8.3980 -61.5849 138° Southeast  Level FlightAware Approximate
Wed 04:33:00 AM -8.4951 -61.4958 138° Southeast  Level FlightAware Approximate
Wed 04:34:00 AM -8.5921 -61.4067 138° Southeast  Level FlightAware Approximate
Wed 04:35:00 AM -8.6891 -61.3175 138° Southeast  Level FlightAware Approximate
Wed 04:36:00 AM -8.7861 -61.2283 138° Southeast  Level FlightAware Approximate
Wed 04:37:00 AM -8.8831 -61.1391 138° Southeast  Level FlightAware Approximate
Wed 04:38:00 AM -8.9801 -61.0498 138° Southeast  Level FlightAware Approximate
Wed 04:39:00 AM -9.0770 -60.9604 138° Southeast  Level FlightAware Approximate
Wed 04:40:00 AM -9.1739 -60.8710 138° Southeast  Level FlightAware Approximate
Wed 04:41:00 AM -9.2708 -60.7816 138° Southeast  Level FlightAware Approximate
Wed 04:42:00 AM -9.3677 -60.6921 138° Southeast  Level FlightAware Approximate
Wed 04:43:00 AM -9.4645 -60.6025 138° Southeast  Level FlightAware Approximate
Wed 04:44:00 AM -9.5613 -60.5129 138° Southeast  Level FlightAware Approximate
Wed 04:45:00 AM -9.6581 -60.4233 138° Southeast  Level FlightAware Approximate
Wed 04:46:00 AM -9.7549 -60.3336 138° Southeast  Level FlightAware Approximate
Wed 04:47:00 AM -9.8517 -60.2438 138° Southeast  Level FlightAware Approximate
Wed 04:48:00 AM -9.9484 -60.1540 138° Southeast  Level FlightAware Approximate
Wed 04:49:00 AM -10.0451 -60.0641 138° Southeast  Level FlightAware Approximate
Wed 04:50:00 AM -10.1418 -59.9742 138° Southeast  Level FlightAware Approximate
Wed 04:51:00 AM -10.2384 -59.8843 138° Southeast  Level FlightAware Approximate
Wed 04:52:00 AM -10.3350 -59.7942 137° Southeast  Level FlightAware Approximate
Wed 04:53:00 AM -10.4317 -59.7042 137° Southeast  Level FlightAware Approximate
Wed 04:54:00 AM -10.5282 -59.6140 137° Southeast  Level FlightAware Approximate
Wed 04:55:00 AM -10.6248 -59.5238 137° Southeast  Level FlightAware Approximate
Wed 04:56:00 AM -10.7213 -59.4336 137° Southeast  Level FlightAware Approximate
Wed 04:57:00 AM -10.8178 -59.3433 137° Southeast  Level FlightAware Approximate
Wed 04:58:00 AM -10.9143 -59.2529 137° Southeast  Level FlightAware Approximate
Wed 04:59:00 AM -11.0108 -59.1625 137° Southeast  Level FlightAware Approximate
Wed 05:00:00 AM -11.1072 -59.0720 137° Southeast  Level FlightAware Approximate
Wed 05:01:00 AM -11.2036 -58.9815 137° Southeast  Level FlightAware Approximate
Wed 05:02:00 AM -11.2999 -58.8909 137° Southeast  Level FlightAware Approximate
Wed 05:03:00 AM -11.3963 -58.8002 137° Southeast  Level FlightAware Approximate
Wed 05:04:00 AM -11.4926 -58.7095 137° Southeast  Level FlightAware Approximate
Wed 05:05:00 AM -11.5889 -58.6187 137° Southeast  Level FlightAware Approximate
Wed 05:06:00 AM -11.6852 -58.5279 137° Southeast  Level FlightAware Approximate
Wed 05:07:00 AM -11.7814 -58.4370 137° Southeast  Level FlightAware Approximate
Wed 05:08:00 AM -11.8776 -58.3460 137° Southeast  Level FlightAware Approximate
Wed 05:09:00 AM -11.9738 -58.2549 137° Southeast  Level FlightAware Approximate
Wed 05:10:00 AM -12.0699 -58.1638 137° Southeast  Level FlightAware Approximate
Wed 05:10:47 AM -12.6529 -56.1107 137° Southeast 465 535 37,000  Level FlightAware ADS-B (EPSY / SZY)
Wed 05:11:00 AM -12.1660 -58.0727 137° Southeast  Level FlightAware Approximate
Wed 05:11:17 AM -12.6661 -56.0977 136° Southeast 466 536 37,000  Level FlightAware ADS-B (EPSY / SZY)
Wed 05:11:59 AM -12.7681 -55.9967 136° Southeast 466 536 37,000  Level FlightAware ADS-B (EPSY / SZY)
Wed 05:12:46 AM -12.8401 -55.9250 136° Southeast 467 537 37,000  Level FlightAware ADS-B (EPSY / SZY)
Wed 05:13:32 AM -12.9128 -55.8526 136° Southeast 469 540 37,000  Level FlightAware ADS-B (EPSY / SZY)
Wed 05:14:02 AM -12.9579 -55.8079 136° Southeast 469 540 37,000  Level FlightAware ADS-B (EPSY / SZY)
Wed 05:14:33 AM -13.0069 -55.7590 136° Southeast 470 541 37,000  Level FlightAware ADS-B (EPSY / SZY)
Wed 05:15:31 AM -13.0966 -55.6697 136° Southeast 471 542 37,000  Level FlightAware ADS-B (EPSY / SZY)
Wed 05:16:03 AM -13.1440 -55.6226 136° Southeast 470 541 37,000  Level FlightAware ADS-B (EPSY / SZY)
Wed 05:16:46 AM -13.2154 -55.5513 136° Southeast 471 542 37,000  Level FlightAware ADS-B (EPSY / SZY)
Wed 05:17:32 AM -13.2875 -55.4793 136° Southeast 472 543 37,000  Level FlightAware ADS-B (EPSY / SZY)
Wed 05:18:17 AM -13.3462 -55.4206 136° Southeast 470 541 37,000  Level FlightAware ADS-B (EPSY / SZY)
Wed 05:19:16 AM -13.4496 -55.3172 136° Southeast 470 541 37,000  Level FlightAware ADS-B (EPSY / SZY)
Wed 05:19:48 AM -13.4985 -55.2682 136° Southeast 470 541 37,000  Level FlightAware ADS-B (EPSY / SZY)
Wed 05:20:18 AM -13.5371 -55.2295 136° Southeast 472 543 37,000  Level FlightAware ADS-B (EPSY / SZY)
Wed 05:21:02 AM -13.6117 -55.1548 136° Southeast 472 543 37,000  Level FlightAware ADS-B (EPSY / SZY)
Wed 05:21:47 AM -13.6854 -55.0808 136° Southeast 474 545 37,000  Level FlightAware ADS-B (EPSY / SZY)
Wed 05:22:31 AM -13.7522 -55.0138 136° Southeast 474 545 37,000  Level FlightAware ADS-B (EPSY / SZY)
Wed 05:23:02 AM -13.7975 -54.9682 136° Southeast 474 545 37,000  Level FlightAware ADS-B (EPSY / SZY)
Wed 05:23:48 AM -13.8737 -54.8917 136° Southeast 474 545 37,000  Level FlightAware ADS-B (EPSY / SZY)
Wed 05:24:32 AM -13.9449 -54.8200 136° Southeast 473 544 37,000  Level FlightAware ADS-B (EPSY / SZY)
Wed 05:25:03 AM -13.9920 -54.7724 136° Southeast 475 547 37,000  Level FlightAware ADS-B (EPSY / SZY)
Wed 05:25:33 AM -14.0392 -54.7249 136° Southeast 474 545 37,000  Level FlightAware ADS-B (EPSY / SZY)
Wed 05:26:18 AM -14.0944 -54.6692 136° Southeast 472 543 37,000  Level FlightAware ADS-B (EPSY / SZY)
Wed 05:28:00 AM -14.2688 -54.5261 142° Southeast  Level Estimated
Wed 05:29:00 AM -14.3792 -54.4401 141° Southeast  Level Estimated
Wed 05:30:00 AM -14.4817 -54.3557 141° Southeast  Level Estimated
Wed 05:31:00 AM -14.5841 -54.2712 141° Southeast  Level Estimated
Wed 05:32:00 AM -14.6865 -54.1867 141° Southeast  Level Estimated
Wed 05:33:00 AM -14.7889 -54.1020 141° Southeast  Level Estimated
Wed 05:34:00 AM -14.8913 -54.0173 141° Southeast  Level Estimated
Wed 05:35:00 AM -14.9936 -53.9325 141° Southeast  Level Estimated
Wed 05:36:00 AM -15.0959 -53.8476 141° Southeast  Level Estimated
Wed 05:37:00 AM -15.1981 -53.7626 141° Southeast  Level Estimated
Wed 05:38:00 AM -15.3004 -53.6776 141° Southeast  Level Estimated
Wed 05:39:00 AM -15.4025 -53.5924 141° Southeast  Level Estimated
Wed 05:40:00 AM -15.5047 -53.5072 141° Southeast  Level Estimated
Wed 05:41:00 AM -15.6068 -53.4219 141° Southeast  Level Estimated
Wed 05:42:00 AM -15.7089 -53.3365 141° Southeast  Level Estimated
Wed 05:43:00 AM -15.8110 -53.2510 141° Southeast  Level Estimated
Wed 05:44:00 AM -15.9130 -53.1655 141° Southeast  Level Estimated
Wed 05:45:00 AM -16.0150 -53.0798 141° Southeast  Level Estimated
Wed 05:46:00 AM -16.1166 -52.9944 141° Southeast  Level Estimated
Wed 05:47:00 AM -16.2182 -52.9089 141° Southeast  Level Estimated
Wed 05:48:00 AM -16.3197 -52.8233 141° Southeast  Level Estimated
Wed 05:49:00 AM -16.4212 -52.7376 141° Southeast  Level Estimated
Wed 05:50:00 AM -16.5227 -52.6518 141° Southeast  Level Estimated
Wed 05:51:00 AM -16.6241 -52.5659 141° Southeast  Level Estimated
Wed 05:52:00 AM -16.7255 -52.4799 141° Southeast  Level Estimated
Wed 05:53:00 AM -16.8269 -52.3939 141° Southeast  Level Estimated
Wed 05:54:00 AM -16.9282 -52.3077 141° Southeast  Level Estimated
Wed 05:55:00 AM -17.0295 -52.2215 141° Southeast  Level Estimated
Wed 05:56:00 AM -17.1307 -52.1352 141° Southeast  Level Estimated
Wed 05:57:00 AM -17.2319 -52.0487 141° Southeast  Level Estimated
Wed 05:58:00 AM -17.3331 -51.9622 141° Southeast  Level Estimated
Wed 05:59:00 AM -17.4342 -51.8756 141° Southeast  Level Estimated
Wed 06:00:00 AM -17.5354 -51.7888 141° Southeast  Level Estimated
Wed 06:01:00 AM -17.6364 -51.7020 141° Southeast  Level Estimated
Wed 06:02:00 AM -17.7374 -51.6151 141° Southeast  Level Estimated
Wed 06:03:00 AM -17.8384 -51.5281 141° Southeast  Level Estimated
Wed 06:04:00 AM -17.9394 -51.4410 141° Southeast  Level Estimated
Wed 06:05:00 AM -18.0403 -51.3538 141° Southeast  Level Estimated
Wed 06:06:00 AM -18.1412 -51.2665 141° Southeast  Level Estimated
Wed 06:07:00 AM -18.2420 -51.1791 141° Southeast  Level Estimated
Wed 06:08:00 AM -18.3428 -51.0916 141° Southeast  Level Estimated
Wed 06:09:00 AM -18.4435 -51.0039 140° Southeast  Level Estimated
Wed 06:10:00 AM -18.5442 -50.9162 140° Southeast  Level Estimated
Wed 06:11:00 AM -18.6449 -50.8284 140° Southeast  Level Estimated
Wed 06:12:00 AM -18.7455 -50.7405 140° Southeast  Level Estimated
Wed 06:13:00 AM -18.8461 -50.6525 140° Southeast  Level Estimated
Wed 06:14:00 AM -18.9467 -50.5643 140° Southeast  Level Estimated
Wed 06:15:00 AM -19.0472 -50.4761 140° Southeast  Level Estimated
Wed 06:16:00 AM -19.1477 -50.3877 140° Southeast  Level Estimated
Wed 06:17:00 AM -19.2481 -50.2993 140° Southeast  Level Estimated
Wed 06:18:00 AM -19.3485 -50.2107 140° Southeast  Level Estimated
Wed 06:19:00 AM -19.4488 -50.1221 140° Southeast  Level Estimated
Wed 06:20:00 AM -19.5491 -50.0333 140° Southeast  Level Estimated
Wed 06:21:00 AM -19.6493 -49.9444 140° Southeast  Level Estimated
Wed 06:22:00 AM -19.7495 -49.8554 140° Southeast  Level Estimated
Wed 06:23:00 AM -19.8497 -49.7663 140° Southeast  Level Estimated
Wed 06:24:00 AM -19.9498 -49.6770 140° Southeast  Level Estimated
Wed 06:25:00 AM -20.0499 -49.5877 140° Southeast  Level Estimated
Wed 06:26:00 AM -20.1499 -49.4982 140° Southeast  Level Estimated
Wed 06:27:00 AM -20.2499 -49.4087 140° Southeast  Level Estimated
Wed 06:28:00 AM -20.3498 -49.3190 140° Southeast  Level Estimated
Wed 06:29:00 AM -20.4497 -49.2292 140° Southeast  Level Estimated
Wed 06:30:00 AM -20.5496 -49.1393 140° Southeast  Level Estimated
Wed 06:31:00 AM -20.6494 -49.0492 140° Southeast  Level Estimated
Wed 06:32:00 AM -20.7491 -48.9591 140° Southeast  Level Estimated
Wed 06:33:00 AM -20.8489 -48.8688 140° Southeast  Level Estimated
Wed 06:34:00 AM -20.9485 -48.7784 140° Southeast  Level Estimated
Wed 06:35:00 AM -21.0481 -48.6879 140° Southeast  Level Estimated
Wed 06:36:00 AM -21.1477 -48.5973 140° Southeast  Level Estimated
Wed 06:37:00 AM -21.2472 -48.5065 140° Southeast  Level Estimated
Wed 06:38:00 AM -21.3467 -48.4156 140° Southeast  Level Estimated
Wed 06:39:00 AM -21.4461 -48.3246 140° Southeast  Level Estimated
Wed 06:40:00 AM -21.5455 -48.2335 140° Southeast  Level Estimated
Wed 06:41:00 AM -21.6448 -48.1423 140° Southeast  Level Estimated
Wed 06:42:00 AM -21.7440 -48.0509 139° Southeast  Level Estimated
Wed 06:43:00 AM -21.8433 -47.9594 139° Southeast  Level Estimated
Wed 06:44:00 AM -21.9424 -47.8677 139° Southeast  Level Estimated
Wed 06:45:00 AM -22.0415 -47.7760 139° Southeast  Level Estimated
Wed 06:46:00 AM -22.1406 -47.6841 139° Southeast  Level Estimated
Wed 06:47:00 AM -22.2396 -47.5921 139° Southeast  Level Estimated
Wed 06:48:00 AM -22.3386 -47.4999 139° Southeast  Level Estimated
Wed 06:49:00 AM -22.4375 -47.4076 139° Southeast  Level Estimated
Wed 06:50:00 AM -22.5364 -47.3152 139° Southeast  Level Estimated
Wed 06:51:00 AM -22.6352 -47.2227 139° Southeast  Level Estimated
Wed 06:52:00 AM -22.7339 -47.1300 139° Southeast  Level Estimated
Wed 06:53:00 AM -22.8326 -47.0372 139° Southeast  Level Estimated
Wed 06:53:01 AM -21.5586 -46.4340 139° Southeast 459 528 37,000  Level FlightAware ADS-B
Wed 06:54:12 AM -21.7769 -46.3983 171° South 458 527 37,000 -46 Level FlightAware ADS-B
Wed 06:55:11 AM -21.8738 -46.3823 171° South 457 526 36,900 -1,160 Descending FlightAware ADS-B
Wed 06:56:11 AM -22.0290 -46.3569 171° South 463 533 34,700 -2,471 Descending FlightAware ADS-B
Wed 06:57:10 AM -22.1540 -46.3330 170° South 468 539 32,000 -2,380 Descending FlightAware ADS-B
Wed 06:58:12 AM -22.2798 -46.3114 171° South 450 518 29,900 -2,085 Descending FlightAware ADS-B
Wed 06:59:08 AM -22.3713 -46.2960 171° South 434 499 27,900 -2,000 Descending FlightAware ADS-B
Wed 07:00:09 AM -22.5192 -46.2871 177° South 421 484 26,000 -1,902 Descending FlightAware ADS-B
Wed 07:01:11 AM -22.6367 -46.2854 179° South 412 474 24,000 -1,820 Descending FlightAware ADS-B
Wed 07:02:11 AM -22.7529 -46.2835 179° South 407 468 22,300 -1,563 Descending FlightAware ADS-B
Wed 07:03:10 AM -22.8607 -46.2817 179° South 396 456 20,900 -2,050 Descending FlightAware ADS-B
Wed 07:04:11 AM -22.9764 -46.2798 179° South 408 470 18,200 -2,656 Descending FlightAware ADS-B
Wed 07:05:12 AM -23.0859 -46.2781 179° South 387 445 15,500 -2,450 Descending FlightAware ADS-B
Wed 07:06:11 AM -23.1854 -46.2775 180° South 364 419 13,300 -1,714 Descending FlightAware ADS-B
Wed 07:07:11 AM -23.2672 -46.3414 216° Southwest 343 395 12,100 -1,200 Descending FlightAware ADS-B
Wed 07:08:11 AM -23.3068 -46.4267 243° Southwest 321 369 10,900 -1,190 Descending FlightAware ADS-B
Wed 07:09:12 AM -23.3446 -46.5146 245° Southwest 309 356 9,700 -1,240 Descending FlightAware ADS-B
Wed 07:10:12 AM -23.3695 -46.5984 252° West 263 303 8,400 -1,200 Descending FlightAware ADS-B
Wed 07:11:12 AM -23.3917 -46.6669 251° West 224 258 7,300 -1,119 Descending FlightAware ADS-B
Wed 07:12:10 AM -23.4413 -46.6773 191° South 207 238 6,200 -1,210 Descending FlightAware ADS-B
Wed 07:13:11 AM -23.4798 -46.6488 146° Southeast 198 228 4,900 -1,091 Descending FlightAware ADS-B
Wed 07:14:11 AM -23.4649 -46.5836 76° East 181 208 4,000 -915 Descending FlightAware ADS-B
Wed 07:15:09 AM -23.4519 -46.5353 74° East 164 189 3,100 -848 Descending FlightAware ADS-B
Wed 07:15:43 AM -23.4445 -46.5083 73° East 160 184 2,700 -706 Descending FlightAware ADS-B

Login

Don't have an account? Register now (free) for customized features, flight alerts, and more!